Irma, Canada
Current Conditions -  °F | °C
As of 10:00 AM on Thursday 18 Dec 2014 (Local Time) from CYLL Reporting Station
Haze Haze  
Wind Chill: 18°   Ceiling: 200
Heat Index: 18°   Visibility: 0.75mi
Dew Point: 16°   Wind: 3mph
Humidity: 93%   Direction: 320°NW
Pressure: 29.85"   Gusts: NA
Location:  52.92°N, 111.23°W
Report Text: CYLL 181700Z 32003KT 260V360 3/4SM BR OVC002 M08/M09 A2985 RMK ST8 SLP156
Loading
Personal Weather Stations






























Interactive Weather Map New forecast layout! Learn more

10-Day Weather Forecast

Advertisements
Track Severe Weather on mobile